<?xml version="1.0" encoding="UTF-8" standalone="no" ?>
<gpx xmlns="http://www.topografix.com/GPX/1/1" xmlns:xsi="http://www.w3.org/2001/XMLSchema-instance" xsi:schemaLocation="http://www.topografix.com/GPX/1/1 http://www.topografix.com/GPX/1/1/gpx.xsd" version="1.1" creator="VisuGPX - https://www.visugpx.com">
  <metadata>
    <name>secteur Saverne - Dabo - Petite Pierre</name>
  </metadata>
  <trk>
    <name><![CDATA[secteur Saverne - Dabo - Petite Pierre_46]]></name>
    <trkseg>
      <trkpt lat="48.67593" lon="7.26175">
        <ele>454.3</ele>
        <time>2020-08-18T12:46:41Z</time>
      </trkpt>
      <trkpt lat="48.67593" lon="7.26175">
        <ele>454.3</ele>
        <time>2020-08-18T12:46:41Z</time>
      </trkpt>
      <trkpt lat="48.67593" lon="7.26175">
        <ele>454.3</ele>
        <time>2020-08-18T12:46:41Z</time>
      </trkpt>
      <trkpt lat="48.67593" lon="7.26175">
        <ele>454.3</ele>
        <time>2020-08-18T12:46:41Z</time>
      </trkpt>
      <trkpt lat="48.67593" lon="7.26175">
        <ele>454.3</ele>
        <time>2020-08-18T12:46:41Z</time>
      </trkpt>
      <trkpt lat="48.67598" lon="7.26174">
        <ele>453.9</ele>
        <time>2020-08-18T12:46:49Z</time>
      </trkpt>
      <trkpt lat="48.67598" lon="7.26182">
        <ele>453.6</ele>
        <time>2020-08-18T12:46:52Z</time>
      </trkpt>
      <trkpt lat="48.676" lon="7.26189">
        <ele>453.5</ele>
        <time>2020-08-18T12:46:54Z</time>
      </trkpt>
      <trkpt lat="48.67604" lon="7.26197">
        <ele>452.9</ele>
        <time>2020-08-18T12:46:56Z</time>
      </trkpt>
      <trkpt lat="48.67608" lon="7.26206">
        <ele>452.4</ele>
        <time>2020-08-18T12:46:58Z</time>
      </trkpt>
      <trkpt lat="48.67613" lon="7.26218">
        <ele>452.1</ele>
        <time>2020-08-18T12:47:00Z</time>
      </trkpt>
      <trkpt lat="48.67618" lon="7.26229">
        <ele>451.6</ele>
        <time>2020-08-18T12:47:02Z</time>
      </trkpt>
      <trkpt lat="48.67623" lon="7.26241">
        <ele>451.3</ele>
        <time>2020-08-18T12:47:04Z</time>
      </trkpt>
      <trkpt lat="48.67629" lon="7.26251">
        <ele>450.9</ele>
        <time>2020-08-18T12:47:06Z</time>
      </trkpt>
      <trkpt lat="48.67635" lon="7.2626">
        <ele>449.8</ele>
        <time>2020-08-18T12:47:08Z</time>
      </trkpt>
      <trkpt lat="48.67647" lon="7.26273">
        <ele>449.2</ele>
        <time>2020-08-18T12:47:11Z</time>
      </trkpt>
      <trkpt lat="48.67654" lon="7.26282">
        <ele>448.2</ele>
        <time>2020-08-18T12:47:13Z</time>
      </trkpt>
      <trkpt lat="48.6766" lon="7.26289">
        <ele>446.3</ele>
        <time>2020-08-18T12:47:15Z</time>
      </trkpt>
      <trkpt lat="48.67664" lon="7.26293">
        <ele>445.2</ele>
        <time>2020-08-18T12:47:18Z</time>
      </trkpt>
      <trkpt lat="48.67669" lon="7.26295">
        <ele>446.4</ele>
        <time>2020-08-18T12:47:22Z</time>
      </trkpt>
      <trkpt lat="48.67674" lon="7.26299">
        <ele>446.8</ele>
        <time>2020-08-18T12:47:24Z</time>
      </trkpt>
      <trkpt lat="48.6768" lon="7.26303">
        <ele>447</ele>
        <time>2020-08-18T12:47:26Z</time>
      </trkpt>
      <trkpt lat="48.67686" lon="7.26312">
        <ele>446.6</ele>
        <time>2020-08-18T12:47:28Z</time>
      </trkpt>
      <trkpt lat="48.67694" lon="7.2632">
        <ele>446.5</ele>
        <time>2020-08-18T12:47:30Z</time>
      </trkpt>
      <trkpt lat="48.67703" lon="7.26328">
        <ele>446.8</ele>
        <time>2020-08-18T12:47:32Z</time>
      </trkpt>
      <trkpt lat="48.6771" lon="7.26339">
        <ele>446.5</ele>
        <time>2020-08-18T12:47:34Z</time>
      </trkpt>
      <trkpt lat="48.6772" lon="7.26349">
        <ele>446.2</ele>
        <time>2020-08-18T12:47:36Z</time>
      </trkpt>
      <trkpt lat="48.67731" lon="7.26359">
        <ele>446</ele>
        <time>2020-08-18T12:47:38Z</time>
      </trkpt>
      <trkpt lat="48.67743" lon="7.26368">
        <ele>445.4</ele>
        <time>2020-08-18T12:47:41Z</time>
      </trkpt>
      <trkpt lat="48.67755" lon="7.26378">
        <ele>444.8</ele>
        <time>2020-08-18T12:47:43Z</time>
      </trkpt>
      <trkpt lat="48.67765" lon="7.26386">
        <ele>443.2</ele>
        <time>2020-08-18T12:47:45Z</time>
      </trkpt>
      <trkpt lat="48.67775" lon="7.26394">
        <ele>441.9</ele>
        <time>2020-08-18T12:47:47Z</time>
      </trkpt>
      <trkpt lat="48.67785" lon="7.26399">
        <ele>441.1</ele>
        <time>2020-08-18T12:47:49Z</time>
      </trkpt>
      <trkpt lat="48.67792" lon="7.26403">
        <ele>439.7</ele>
        <time>2020-08-18T12:47:51Z</time>
      </trkpt>
      <trkpt lat="48.67799" lon="7.26407">
        <ele>438.7</ele>
        <time>2020-08-18T12:47:53Z</time>
      </trkpt>
      <trkpt lat="48.67813" lon="7.26418">
        <ele>436.9</ele>
        <time>2020-08-18T12:47:55Z</time>
      </trkpt>
      <trkpt lat="48.67822" lon="7.26423">
        <ele>436.3</ele>
        <time>2020-08-18T12:47:57Z</time>
      </trkpt>
      <trkpt lat="48.67835" lon="7.2643">
        <ele>435.4</ele>
        <time>2020-08-18T12:48:00Z</time>
      </trkpt>
      <trkpt lat="48.67843" lon="7.26432">
        <ele>434.9</ele>
        <time>2020-08-18T12:48:02Z</time>
      </trkpt>
      <trkpt lat="48.6785" lon="7.26434">
        <ele>434.1</ele>
        <time>2020-08-18T12:48:04Z</time>
      </trkpt>
      <trkpt lat="48.67856" lon="7.26435">
        <ele>433.9</ele>
        <time>2020-08-18T12:48:06Z</time>
      </trkpt>
      <trkpt lat="48.67863" lon="7.26437">
        <ele>433.3</ele>
        <time>2020-08-18T12:48:08Z</time>
      </trkpt>
      <trkpt lat="48.6787" lon="7.26438">
        <ele>432.9</ele>
        <time>2020-08-18T12:48:11Z</time>
      </trkpt>
      <trkpt lat="48.67878" lon="7.26439">
        <ele>431.8</ele>
        <time>2020-08-18T12:48:14Z</time>
      </trkpt>
      <trkpt lat="48.67884" lon="7.2644">
        <ele>431.2</ele>
        <time>2020-08-18T12:48:16Z</time>
      </trkpt>
      <trkpt lat="48.67891" lon="7.26442">
        <ele>431.1</ele>
        <time>2020-08-18T12:48:18Z</time>
      </trkpt>
      <trkpt lat="48.67905" lon="7.26447">
        <ele>430</ele>
        <time>2020-08-18T12:48:21Z</time>
      </trkpt>
      <trkpt lat="48.67913" lon="7.26448">
        <ele>429.7</ele>
        <time>2020-08-18T12:48:23Z</time>
      </trkpt>
      <trkpt lat="48.67927" lon="7.2645">
        <ele>428.4</ele>
        <time>2020-08-18T12:48:26Z</time>
      </trkpt>
      <trkpt lat="48.67936" lon="7.26451">
        <ele>427.6</ele>
        <time>2020-08-18T12:48:28Z</time>
      </trkpt>
      <trkpt lat="48.6795" lon="7.2645">
        <ele>426.8</ele>
        <time>2020-08-18T12:48:31Z</time>
      </trkpt>
      <trkpt lat="48.67959" lon="7.26452">
        <ele>426.6</ele>
        <time>2020-08-18T12:48:33Z</time>
      </trkpt>
      <trkpt lat="48.67971" lon="7.26454">
        <ele>425.9</ele>
        <time>2020-08-18T12:48:36Z</time>
      </trkpt>
      <trkpt lat="48.67983" lon="7.26454">
        <ele>425.4</ele>
        <time>2020-08-18T12:48:39Z</time>
      </trkpt>
      <trkpt lat="48.67992" lon="7.26454">
        <ele>425</ele>
        <time>2020-08-18T12:48:41Z</time>
      </trkpt>
      <trkpt lat="48.68004" lon="7.26455">
        <ele>424.7</ele>
        <time>2020-08-18T12:48:43Z</time>
      </trkpt>
      <trkpt lat="48.68014" lon="7.26455">
        <ele>424.2</ele>
        <time>2020-08-18T12:48:45Z</time>
      </trkpt>
      <trkpt lat="48.6803" lon="7.26458">
        <ele>423.5</ele>
        <time>2020-08-18T12:48:48Z</time>
      </trkpt>
      <trkpt lat="48.68049" lon="7.26462">
        <ele>422.5</ele>
        <time>2020-08-18T12:48:51Z</time>
      </trkpt>
      <trkpt lat="48.68065" lon="7.26468">
        <ele>420.6</ele>
        <time>2020-08-18T12:48:54Z</time>
      </trkpt>
      <trkpt lat="48.68076" lon="7.26469">
        <ele>419.7</ele>
        <time>2020-08-18T12:48:56Z</time>
      </trkpt>
      <trkpt lat="48.68093" lon="7.26467">
        <ele>419.6</ele>
        <time>2020-08-18T12:48:59Z</time>
      </trkpt>
      <trkpt lat="48.68103" lon="7.26463">
        <ele>419.6</ele>
        <time>2020-08-18T12:49:01Z</time>
      </trkpt>
      <trkpt lat="48.68112" lon="7.26459">
        <ele>419.9</ele>
        <time>2020-08-18T12:49:03Z</time>
      </trkpt>
      <trkpt lat="48.6812" lon="7.26459">
        <ele>418.9</ele>
        <time>2020-08-18T12:49:05Z</time>
      </trkpt>
      <trkpt lat="48.68132" lon="7.26459">
        <ele>417</ele>
        <time>2020-08-18T12:49:08Z</time>
      </trkpt>
      <trkpt lat="48.68142" lon="7.26456">
        <ele>416.2</ele>
        <time>2020-08-18T12:49:10Z</time>
      </trkpt>
      <trkpt lat="48.68152" lon="7.26455">
        <ele>415.1</ele>
        <time>2020-08-18T12:49:12Z</time>
      </trkpt>
      <trkpt lat="48.68166" lon="7.26452">
        <ele>413.7</ele>
        <time>2020-08-18T12:49:15Z</time>
      </trkpt>
      <trkpt lat="48.68176" lon="7.26452">
        <ele>412.1</ele>
        <time>2020-08-18T12:49:17Z</time>
      </trkpt>
      <trkpt lat="48.68186" lon="7.26451">
        <ele>410.2</ele>
        <time>2020-08-18T12:49:19Z</time>
      </trkpt>
      <trkpt lat="48.68198" lon="7.26449">
        <ele>408.6</ele>
        <time>2020-08-18T12:49:21Z</time>
      </trkpt>
      <trkpt lat="48.68209" lon="7.26448">
        <ele>407.6</ele>
        <time>2020-08-18T12:49:23Z</time>
      </trkpt>
      <trkpt lat="48.68221" lon="7.26445">
        <ele>406.6</ele>
        <time>2020-08-18T12:49:25Z</time>
      </trkpt>
      <trkpt lat="48.68231" lon="7.26442">
        <ele>406.4</ele>
        <time>2020-08-18T12:49:27Z</time>
      </trkpt>
      <trkpt lat="48.68243" lon="7.26441">
        <ele>405.7</ele>
        <time>2020-08-18T12:49:29Z</time>
      </trkpt>
      <trkpt lat="48.68254" lon="7.26442">
        <ele>404.5</ele>
        <time>2020-08-18T12:49:31Z</time>
      </trkpt>
      <trkpt lat="48.68264" lon="7.26441">
        <ele>403.5</ele>
        <time>2020-08-18T12:49:33Z</time>
      </trkpt>
      <trkpt lat="48.68275" lon="7.2644">
        <ele>402.7</ele>
        <time>2020-08-18T12:49:35Z</time>
      </trkpt>
      <trkpt lat="48.68285" lon="7.2644">
        <ele>402</ele>
        <time>2020-08-18T12:49:37Z</time>
      </trkpt>
      <trkpt lat="48.68296" lon="7.26439">
        <ele>400.6</ele>
        <time>2020-08-18T12:49:39Z</time>
      </trkpt>
      <trkpt lat="48.68307" lon="7.26437">
        <ele>399.8</ele>
        <time>2020-08-18T12:49:41Z</time>
      </trkpt>
      <trkpt lat="48.6832" lon="7.26432">
        <ele>399</ele>
        <time>2020-08-18T12:49:43Z</time>
      </trkpt>
      <trkpt lat="48.68335" lon="7.26429">
        <ele>398.2</ele>
        <time>2020-08-18T12:49:45Z</time>
      </trkpt>
      <trkpt lat="48.68348" lon="7.26429">
        <ele>396.4</ele>
        <time>2020-08-18T12:49:47Z</time>
      </trkpt>
      <trkpt lat="48.68363" lon="7.26428">
        <ele>394.8</ele>
        <time>2020-08-18T12:49:49Z</time>
      </trkpt>
      <trkpt lat="48.68377" lon="7.26426">
        <ele>393.3</ele>
        <time>2020-08-18T12:49:51Z</time>
      </trkpt>
      <trkpt lat="48.68388" lon="7.26424">
        <ele>392.1</ele>
        <time>2020-08-18T12:49:53Z</time>
      </trkpt>
      <trkpt lat="48.68398" lon="7.26423">
        <ele>395.3</ele>
        <time>2020-08-18T12:49:55Z</time>
      </trkpt>
      <trkpt lat="48.6841" lon="7.26421">
        <ele>395.8</ele>
        <time>2020-08-18T12:49:57Z</time>
      </trkpt>
      <trkpt lat="48.68422" lon="7.26417">
        <ele>396.9</ele>
        <time>2020-08-18T12:49:59Z</time>
      </trkpt>
      <trkpt lat="48.68434" lon="7.26414">
        <ele>395.7</ele>
        <time>2020-08-18T12:50:01Z</time>
      </trkpt>
      <trkpt lat="48.68445" lon="7.26411">
        <ele>394.5</ele>
        <time>2020-08-18T12:50:03Z</time>
      </trkpt>
      <trkpt lat="48.68454" lon="7.26412">
        <ele>392.5</ele>
        <time>2020-08-18T12:50:05Z</time>
      </trkpt>
      <trkpt lat="48.68464" lon="7.26413">
        <ele>390.6</ele>
        <time>2020-08-18T12:50:07Z</time>
      </trkpt>
      <trkpt lat="48.68479" lon="7.26417">
        <ele>387.2</ele>
        <time>2020-08-18T12:50:10Z</time>
      </trkpt>
      <trkpt lat="48.68488" lon="7.2642">
        <ele>385.1</ele>
        <time>2020-08-18T12:50:12Z</time>
      </trkpt>
      <trkpt lat="48.68499" lon="7.26423">
        <ele>382.7</ele>
        <time>2020-08-18T12:50:14Z</time>
      </trkpt>
      <trkpt lat="48.6851" lon="7.26426">
        <ele>380.8</ele>
        <time>2020-08-18T12:50:16Z</time>
      </trkpt>
      <trkpt lat="48.68521" lon="7.26428">
        <ele>379.5</ele>
        <time>2020-08-18T12:50:18Z</time>
      </trkpt>
      <trkpt lat="48.68527" lon="7.26431">
        <ele>379.3</ele>
        <time>2020-08-18T12:50:20Z</time>
      </trkpt>
      <trkpt lat="48.68532" lon="7.26434">
        <ele>379.2</ele>
        <time>2020-08-18T12:50:23Z</time>
      </trkpt>
      <trkpt lat="48.68538" lon="7.26435">
        <ele>379.5</ele>
        <time>2020-08-18T12:50:27Z</time>
      </trkpt>
      <trkpt lat="48.68543" lon="7.26435">
        <ele>380.5</ele>
        <time>2020-08-18T12:50:29Z</time>
      </trkpt>
      <trkpt lat="48.6855" lon="7.26437">
        <ele>381.1</ele>
        <time>2020-08-18T12:50:31Z</time>
      </trkpt>
      <trkpt lat="48.68557" lon="7.26438">
        <ele>382.6</ele>
        <time>2020-08-18T12:50:33Z</time>
      </trkpt>
      <trkpt lat="48.68565" lon="7.26439">
        <ele>383.3</ele>
        <time>2020-08-18T12:50:36Z</time>
      </trkpt>
      <trkpt lat="48.6857" lon="7.26437">
        <ele>382.1</ele>
        <time>2020-08-18T12:50:52Z</time>
      </trkpt>
      <trkpt lat="48.68575" lon="7.26438">
        <ele>381</ele>
        <time>2020-08-18T12:50:54Z</time>
      </trkpt>
      <trkpt lat="48.68583" lon="7.26441">
        <ele>379.6</ele>
        <time>2020-08-18T12:50:56Z</time>
      </trkpt>
      <trkpt lat="48.68595" lon="7.26446">
        <ele>378.4</ele>
        <time>2020-08-18T12:50:58Z</time>
      </trkpt>
      <trkpt lat="48.68604" lon="7.26454">
        <ele>375.6</ele>
        <time>2020-08-18T12:51:01Z</time>
      </trkpt>
      <trkpt lat="48.68612" lon="7.26456">
        <ele>375.3</ele>
        <time>2020-08-18T12:51:04Z</time>
      </trkpt>
      <trkpt lat="48.68618" lon="7.26457">
        <ele>375</ele>
        <time>2020-08-18T12:51:06Z</time>
      </trkpt>
      <trkpt lat="48.68626" lon="7.2646">
        <ele>374.3</ele>
        <time>2020-08-18T12:51:08Z</time>
      </trkpt>
      <trkpt lat="48.68633" lon="7.26463">
        <ele>374.2</ele>
        <time>2020-08-18T12:51:10Z</time>
      </trkpt>
      <trkpt lat="48.68638" lon="7.26464">
        <ele>374.3</ele>
        <time>2020-08-18T12:51:13Z</time>
      </trkpt>
      <trkpt lat="48.68643" lon="7.26465">
        <ele>373.8</ele>
        <time>2020-08-18T12:51:18Z</time>
      </trkpt>
      <trkpt lat="48.68649" lon="7.26468">
        <ele>372.3</ele>
        <time>2020-08-18T12:51:24Z</time>
      </trkpt>
      <trkpt lat="48.68655" lon="7.26472">
        <ele>371.7</ele>
        <time>2020-08-18T12:51:26Z</time>
      </trkpt>
      <trkpt lat="48.68663" lon="7.26475">
        <ele>371.1</ele>
        <time>2020-08-18T12:51:28Z</time>
      </trkpt>
      <trkpt lat="48.68673" lon="7.26479">
        <ele>370.4</ele>
        <time>2020-08-18T12:51:30Z</time>
      </trkpt>
      <trkpt lat="48.68683" lon="7.26484">
        <ele>369.5</ele>
        <time>2020-08-18T12:51:32Z</time>
      </trkpt>
      <trkpt lat="48.68694" lon="7.26487">
        <ele>369.3</ele>
        <time>2020-08-18T12:51:34Z</time>
      </trkpt>
      <trkpt lat="48.68705" lon="7.26491">
        <ele>369.1</ele>
        <time>2020-08-18T12:51:36Z</time>
      </trkpt>
      <trkpt lat="48.68717" lon="7.26496">
        <ele>369.6</ele>
        <time>2020-08-18T12:51:38Z</time>
      </trkpt>
      <trkpt lat="48.68729" lon="7.26502">
        <ele>369.6</ele>
        <time>2020-08-18T12:51:40Z</time>
      </trkpt>
      <trkpt lat="48.6874" lon="7.26506">
        <ele>369.8</ele>
        <time>2020-08-18T12:51:42Z</time>
      </trkpt>
      <trkpt lat="48.68751" lon="7.2651">
        <ele>369.3</ele>
        <time>2020-08-18T12:51:44Z</time>
      </trkpt>
      <trkpt lat="48.68761" lon="7.26514">
        <ele>368.7</ele>
        <time>2020-08-18T12:51:46Z</time>
      </trkpt>
      <trkpt lat="48.68773" lon="7.26518">
        <ele>367.8</ele>
        <time>2020-08-18T12:51:48Z</time>
      </trkpt>
      <trkpt lat="48.68778" lon="7.26521">
        <ele>367</ele>
        <time>2020-08-18T12:51:50Z</time>
      </trkpt>
      <trkpt lat="48.68784" lon="7.26523">
        <ele>367.2</ele>
        <time>2020-08-18T12:51:53Z</time>
      </trkpt>
      <trkpt lat="48.68789" lon="7.26526">
        <ele>367.4</ele>
        <time>2020-08-18T12:51:55Z</time>
      </trkpt>
      <trkpt lat="48.68795" lon="7.2653">
        <ele>367.7</ele>
        <time>2020-08-18T12:51:57Z</time>
      </trkpt>
      <trkpt lat="48.68805" lon="7.26534">
        <ele>367.9</ele>
        <time>2020-08-18T12:52:00Z</time>
      </trkpt>
      <trkpt lat="48.6881" lon="7.26535">
        <ele>368.5</ele>
        <time>2020-08-18T12:52:02Z</time>
      </trkpt>
      <trkpt lat="48.68817" lon="7.26535">
        <ele>368.2</ele>
        <time>2020-08-18T12:52:04Z</time>
      </trkpt>
      <trkpt lat="48.68824" lon="7.26536">
        <ele>367.8</ele>
        <time>2020-08-18T12:52:06Z</time>
      </trkpt>
      <trkpt lat="48.68831" lon="7.26538">
        <ele>367.4</ele>
        <time>2020-08-18T12:52:08Z</time>
      </trkpt>
      <trkpt lat="48.68838" lon="7.26539">
        <ele>366.7</ele>
        <time>2020-08-18T12:52:10Z</time>
      </trkpt>
      <trkpt lat="48.68848" lon="7.26547">
        <ele>366.6</ele>
        <time>2020-08-18T12:52:13Z</time>
      </trkpt>
      <trkpt lat="48.68853" lon="7.26553">
        <ele>365.6</ele>
        <time>2020-08-18T12:52:16Z</time>
      </trkpt>
      <trkpt lat="48.68857" lon="7.26556">
        <ele>364.7</ele>
        <time>2020-08-18T12:52:18Z</time>
      </trkpt>
      <trkpt lat="48.68864" lon="7.2656">
        <ele>372.3</ele>
        <time>2020-08-18T12:52:22Z</time>
      </trkpt>
      <trkpt lat="48.68868" lon="7.26565">
        <ele>370.5</ele>
        <time>2020-08-18T12:52:24Z</time>
      </trkpt>
      <trkpt lat="48.68877" lon="7.2657">
        <ele>372.4</ele>
        <time>2020-08-18T12:52:26Z</time>
      </trkpt>
      <trkpt lat="48.68887" lon="7.26574">
        <ele>370.5</ele>
        <time>2020-08-18T12:52:28Z</time>
      </trkpt>
      <trkpt lat="48.68902" lon="7.26585">
        <ele>368.6</ele>
        <time>2020-08-18T12:52:31Z</time>
      </trkpt>
      <trkpt lat="48.6891" lon="7.26591">
        <ele>366.2</ele>
        <time>2020-08-18T12:52:33Z</time>
      </trkpt>
      <trkpt lat="48.68917" lon="7.26598">
        <ele>363.7</ele>
        <time>2020-08-18T12:52:35Z</time>
      </trkpt>
      <trkpt lat="48.68926" lon="7.26603">
        <ele>361</ele>
        <time>2020-08-18T12:52:37Z</time>
      </trkpt>
      <trkpt lat="48.68935" lon="7.26607">
        <ele>358.4</ele>
        <time>2020-08-18T12:52:39Z</time>
      </trkpt>
      <trkpt lat="48.68943" lon="7.26612">
        <ele>356.2</ele>
        <time>2020-08-18T12:52:41Z</time>
      </trkpt>
      <trkpt lat="48.68952" lon="7.26617">
        <ele>354.1</ele>
        <time>2020-08-18T12:52:43Z</time>
      </trkpt>
      <trkpt lat="48.6896" lon="7.26619">
        <ele>352.5</ele>
        <time>2020-08-18T12:52:45Z</time>
      </trkpt>
      <trkpt lat="48.68965" lon="7.2662">
        <ele>349.5</ele>
        <time>2020-08-18T12:52:50Z</time>
      </trkpt>
      <trkpt lat="48.68971" lon="7.26618">
        <ele>347.9</ele>
        <time>2020-08-18T12:52:54Z</time>
      </trkpt>
      <trkpt lat="48.68977" lon="7.26617">
        <ele>347</ele>
        <time>2020-08-18T12:52:59Z</time>
      </trkpt>
      <trkpt lat="48.68982" lon="7.26621">
        <ele>346.8</ele>
        <time>2020-08-18T12:53:01Z</time>
      </trkpt>
      <trkpt lat="48.68994" lon="7.26632">
        <ele>345.6</ele>
        <time>2020-08-18T12:53:04Z</time>
      </trkpt>
      <trkpt lat="48.69001" lon="7.26638">
        <ele>344.3</ele>
        <time>2020-08-18T12:53:06Z</time>
      </trkpt>
      <trkpt lat="48.69008" lon="7.26646">
        <ele>342.5</ele>
        <time>2020-08-18T12:53:08Z</time>
      </trkpt>
      <trkpt lat="48.69018" lon="7.26658">
        <ele>340.4</ele>
        <time>2020-08-18T12:53:11Z</time>
      </trkpt>
      <trkpt lat="48.69027" lon="7.26666">
        <ele>338.8</ele>
        <time>2020-08-18T12:53:13Z</time>
      </trkpt>
      <trkpt lat="48.69034" lon="7.26674">
        <ele>337.2</ele>
        <time>2020-08-18T12:53:15Z</time>
      </trkpt>
      <trkpt lat="48.69042" lon="7.26682">
        <ele>353.6</ele>
        <time>2020-08-18T12:53:17Z</time>
      </trkpt>
      <trkpt lat="48.69052" lon="7.26688">
        <ele>353.9</ele>
        <time>2020-08-18T12:53:19Z</time>
      </trkpt>
      <trkpt lat="48.6906" lon="7.26693">
        <ele>351.5</ele>
        <time>2020-08-18T12:53:21Z</time>
      </trkpt>
      <trkpt lat="48.69069" lon="7.26699">
        <ele>348.2</ele>
        <time>2020-08-18T12:53:23Z</time>
      </trkpt>
      <trkpt lat="48.69077" lon="7.26707">
        <ele>344.9</ele>
        <time>2020-08-18T12:53:25Z</time>
      </trkpt>
      <trkpt lat="48.69086" lon="7.26716">
        <ele>342</ele>
        <time>2020-08-18T12:53:27Z</time>
      </trkpt>
      <trkpt lat="48.69094" lon="7.26725">
        <ele>339.1</ele>
        <time>2020-08-18T12:53:29Z</time>
      </trkpt>
      <trkpt lat="48.69101" lon="7.26733">
        <ele>337.1</ele>
        <time>2020-08-18T12:53:31Z</time>
      </trkpt>
      <trkpt lat="48.69108" lon="7.26741">
        <ele>334.9</ele>
        <time>2020-08-18T12:53:33Z</time>
      </trkpt>
      <trkpt lat="48.69116" lon="7.2675">
        <ele>332.7</ele>
        <time>2020-08-18T12:53:35Z</time>
      </trkpt>
      <trkpt lat="48.69123" lon="7.26757">
        <ele>331.1</ele>
        <time>2020-08-18T12:53:37Z</time>
      </trkpt>
      <trkpt lat="48.69129" lon="7.26763">
        <ele>330.3</ele>
        <time>2020-08-18T12:53:39Z</time>
      </trkpt>
      <trkpt lat="48.69137" lon="7.26771">
        <ele>329.5</ele>
        <time>2020-08-18T12:53:41Z</time>
      </trkpt>
      <trkpt lat="48.69145" lon="7.2678">
        <ele>328.6</ele>
        <time>2020-08-18T12:53:43Z</time>
      </trkpt>
      <trkpt lat="48.69152" lon="7.26788">
        <ele>328</ele>
        <time>2020-08-18T12:53:45Z</time>
      </trkpt>
      <trkpt lat="48.69155" lon="7.26794">
        <ele>326.5</ele>
        <time>2020-08-18T12:53:47Z</time>
      </trkpt>
      <trkpt lat="48.69162" lon="7.268">
        <ele>325.6</ele>
        <time>2020-08-18T12:53:49Z</time>
      </trkpt>
      <trkpt lat="48.69169" lon="7.26807">
        <ele>324.5</ele>
        <time>2020-08-18T12:53:51Z</time>
      </trkpt>
      <trkpt lat="48.69174" lon="7.26814">
        <ele>323.7</ele>
        <time>2020-08-18T12:53:53Z</time>
      </trkpt>
      <trkpt lat="48.69177" lon="7.26819">
        <ele>322.4</ele>
        <time>2020-08-18T12:53:55Z</time>
      </trkpt>
      <trkpt lat="48.69181" lon="7.26824">
        <ele>321.4</ele>
        <time>2020-08-18T12:53:57Z</time>
      </trkpt>
      <trkpt lat="48.69185" lon="7.26831">
        <ele>320.2</ele>
        <time>2020-08-18T12:53:59Z</time>
      </trkpt>
      <trkpt lat="48.69189" lon="7.26839">
        <ele>319.9</ele>
        <time>2020-08-18T12:54:01Z</time>
      </trkpt>
      <trkpt lat="48.69194" lon="7.26847">
        <ele>319.5</ele>
        <time>2020-08-18T12:54:03Z</time>
      </trkpt>
      <trkpt lat="48.69198" lon="7.26853">
        <ele>318.5</ele>
        <time>2020-08-18T12:54:05Z</time>
      </trkpt>
      <trkpt lat="48.69203" lon="7.2686">
        <ele>317.2</ele>
        <time>2020-08-18T12:54:08Z</time>
      </trkpt>
      <trkpt lat="48.69207" lon="7.26867">
        <ele>317</ele>
        <time>2020-08-18T12:54:11Z</time>
      </trkpt>
      <trkpt lat="48.69211" lon="7.26872">
        <ele>316.2</ele>
        <time>2020-08-18T12:54:18Z</time>
      </trkpt>
      <trkpt lat="48.69214" lon="7.26876">
        <ele>312.3</ele>
        <time>2020-08-18T12:54:29Z</time>
      </trkpt>
      <trkpt lat="48.6922" lon="7.26881">
        <ele>311</ele>
        <time>2020-08-18T12:54:33Z</time>
      </trkpt>
      <trkpt lat="48.69225" lon="7.26888">
        <ele>310.3</ele>
        <time>2020-08-18T12:54:35Z</time>
      </trkpt>
      <trkpt lat="48.69229" lon="7.26898">
        <ele>309.9</ele>
        <time>2020-08-18T12:54:37Z</time>
      </trkpt>
      <trkpt lat="48.69232" lon="7.26904">
        <ele>309.3</ele>
        <time>2020-08-18T12:54:39Z</time>
      </trkpt>
      <trkpt lat="48.69235" lon="7.26911">
        <ele>311.5</ele>
        <time>2020-08-18T12:55:15Z</time>
      </trkpt>
      <trkpt lat="48.69237" lon="7.26921">
        <ele>310.7</ele>
        <time>2020-08-18T12:55:18Z</time>
      </trkpt>
      <trkpt lat="48.69239" lon="7.26929">
        <ele>310.2</ele>
        <time>2020-08-18T12:55:20Z</time>
      </trkpt>
      <trkpt lat="48.6924" lon="7.2694">
        <ele>310.5</ele>
        <time>2020-08-18T12:55:22Z</time>
      </trkpt>
      <trkpt lat="48.69241" lon="7.26951">
        <ele>310</ele>
        <time>2020-08-18T12:55:24Z</time>
      </trkpt>
      <trkpt lat="48.69241" lon="7.26963">
        <ele>309.5</ele>
        <time>2020-08-18T12:55:26Z</time>
      </trkpt>
      <trkpt lat="48.69242" lon="7.26975">
        <ele>309.4</ele>
        <time>2020-08-18T12:55:28Z</time>
      </trkpt>
      <trkpt lat="48.69242" lon="7.26988">
        <ele>308.5</ele>
        <time>2020-08-18T12:55:30Z</time>
      </trkpt>
      <trkpt lat="48.69244" lon="7.26999">
        <ele>307.8</ele>
        <time>2020-08-18T12:55:32Z</time>
      </trkpt>
      <trkpt lat="48.69245" lon="7.27011">
        <ele>306.9</ele>
        <time>2020-08-18T12:55:34Z</time>
      </trkpt>
      <trkpt lat="48.69246" lon="7.27025">
        <ele>306.3</ele>
        <time>2020-08-18T12:55:36Z</time>
      </trkpt>
      <trkpt lat="48.69249" lon="7.27041">
        <ele>304.4</ele>
        <time>2020-08-18T12:55:38Z</time>
      </trkpt>
      <trkpt lat="48.69252" lon="7.27059">
        <ele>303.1</ele>
        <time>2020-08-18T12:55:40Z</time>
      </trkpt>
      <trkpt lat="48.69256" lon="7.27078">
        <ele>302.2</ele>
        <time>2020-08-18T12:55:42Z</time>
      </trkpt>
      <trkpt lat="48.69258" lon="7.27092">
        <ele>301.4</ele>
        <time>2020-08-18T12:55:44Z</time>
      </trkpt>
      <trkpt lat="48.6926" lon="7.271">
        <ele>299.9</ele>
        <time>2020-08-18T12:55:46Z</time>
      </trkpt>
      <trkpt lat="48.69263" lon="7.27105">
        <ele>297.8</ele>
        <time>2020-08-18T12:55:51Z</time>
      </trkpt>
      <trkpt lat="48.69269" lon="7.27106">
        <ele>296.8</ele>
        <time>2020-08-18T12:55:54Z</time>
      </trkpt>
      <trkpt lat="48.69274" lon="7.27104">
        <ele>296.6</ele>
        <time>2020-08-18T12:55:56Z</time>
      </trkpt>
      <trkpt lat="48.6928" lon="7.27103">
        <ele>296.3</ele>
        <time>2020-08-18T12:55:58Z</time>
      </trkpt>
      <trkpt lat="48.69285" lon="7.27105">
        <ele>295.7</ele>
        <time>2020-08-18T12:56:00Z</time>
      </trkpt>
      <trkpt lat="48.69291" lon="7.27108">
        <ele>295.8</ele>
        <time>2020-08-18T12:56:02Z</time>
      </trkpt>
      <trkpt lat="48.69297" lon="7.27111">
        <ele>296.5</ele>
        <time>2020-08-18T12:56:04Z</time>
      </trkpt>
      <trkpt lat="48.69304" lon="7.27115">
        <ele>296.4</ele>
        <time>2020-08-18T12:56:06Z</time>
      </trkpt>
      <trkpt lat="48.69309" lon="7.27116">
        <ele>296.4</ele>
        <time>2020-08-18T12:56:08Z</time>
      </trkpt>
      <trkpt lat="48.69314" lon="7.27119">
        <ele>294.8</ele>
        <time>2020-08-18T12:56:13Z</time>
      </trkpt>
      <trkpt lat="48.69317" lon="7.27126">
        <ele>293</ele>
        <time>2020-08-18T12:56:16Z</time>
      </trkpt>
      <trkpt lat="48.69319" lon="7.27132">
        <ele>293</ele>
        <time>2020-08-18T12:56:18Z</time>
      </trkpt>
      <trkpt lat="48.69322" lon="7.27138">
        <ele>293.3</ele>
        <time>2020-08-18T12:56:20Z</time>
      </trkpt>
      <trkpt lat="48.69327" lon="7.27142">
        <ele>293.2</ele>
        <time>2020-08-18T12:56:23Z</time>
      </trkpt>
      <trkpt lat="48.69332" lon="7.27148">
        <ele>292.2</ele>
        <time>2020-08-18T12:56:26Z</time>
      </trkpt>
      <trkpt lat="48.69337" lon="7.27153">
        <ele>291.8</ele>
        <time>2020-08-18T12:56:28Z</time>
      </trkpt>
      <trkpt lat="48.69342" lon="7.27157">
        <ele>291.1</ele>
        <time>2020-08-18T12:56:30Z</time>
      </trkpt>
      <trkpt lat="48.69346" lon="7.27159">
        <ele>290.3</ele>
        <time>2020-08-18T12:56:32Z</time>
      </trkpt>
      <trkpt lat="48.69351" lon="7.27164">
        <ele>289.4</ele>
        <time>2020-08-18T12:56:36Z</time>
      </trkpt>
      <trkpt lat="48.69357" lon="7.27171">
        <ele>289.2</ele>
        <time>2020-08-18T12:56:38Z</time>
      </trkpt>
      <trkpt lat="48.69363" lon="7.27179">
        <ele>289</ele>
        <time>2020-08-18T12:56:40Z</time>
      </trkpt>
      <trkpt lat="48.69369" lon="7.27186">
        <ele>288.4</ele>
        <time>2020-08-18T12:56:42Z</time>
      </trkpt>
      <trkpt lat="48.69374" lon="7.27191">
        <ele>287.5</ele>
        <time>2020-08-18T12:56:44Z</time>
      </trkpt>
      <trkpt lat="48.69378" lon="7.27197">
        <ele>286.9</ele>
        <time>2020-08-18T12:56:46Z</time>
      </trkpt>
      <trkpt lat="48.69382" lon="7.27204">
        <ele>286.3</ele>
        <time>2020-08-18T12:56:48Z</time>
      </trkpt>
      <trkpt lat="48.69386" lon="7.2721">
        <ele>286.1</ele>
        <time>2020-08-18T12:56:50Z</time>
      </trkpt>
      <trkpt lat="48.69391" lon="7.27214">
        <ele>285.2</ele>
        <time>2020-08-18T12:56:54Z</time>
      </trkpt>
      <trkpt lat="48.69395" lon="7.27213">
        <ele>282.7</ele>
        <time>2020-08-18T12:57:06Z</time>
      </trkpt>
      <trkpt lat="48.69398" lon="7.27219">
        <ele>282</ele>
        <time>2020-08-18T12:57:12Z</time>
      </trkpt>
      <trkpt lat="48.69403" lon="7.27224">
        <ele>282.9</ele>
        <time>2020-08-18T12:57:14Z</time>
      </trkpt>
      <trkpt lat="48.69408" lon="7.27227">
        <ele>284</ele>
        <time>2020-08-18T12:57:16Z</time>
      </trkpt>
      <trkpt lat="48.69411" lon="7.27231">
        <ele>284.7</ele>
        <time>2020-08-18T12:57:18Z</time>
      </trkpt>
      <trkpt lat="48.69416" lon="7.27239">
        <ele>285.3</ele>
        <time>2020-08-18T12:57:20Z</time>
      </trkpt>
      <trkpt lat="48.69423" lon="7.27245">
        <ele>286.6</ele>
        <time>2020-08-18T12:57:22Z</time>
      </trkpt>
      <trkpt lat="48.69429" lon="7.2725">
        <ele>287.7</ele>
        <time>2020-08-18T12:57:24Z</time>
      </trkpt>
      <trkpt lat="48.69433" lon="7.27255">
        <ele>288.9</ele>
        <time>2020-08-18T12:57:26Z</time>
      </trkpt>
      <trkpt lat="48.69438" lon="7.27257">
        <ele>289.9</ele>
        <time>2020-08-18T12:57:28Z</time>
      </trkpt>
      <trkpt lat="48.69444" lon="7.2726">
        <ele>290</ele>
        <time>2020-08-18T12:57:30Z</time>
      </trkpt>
      <trkpt lat="48.6945" lon="7.27263">
        <ele>289.5</ele>
        <time>2020-08-18T12:57:32Z</time>
      </trkpt>
      <trkpt lat="48.69455" lon="7.27265">
        <ele>288.9</ele>
        <time>2020-08-18T12:57:34Z</time>
      </trkpt>
      <trkpt lat="48.69459" lon="7.2727">
        <ele>289.1</ele>
        <time>2020-08-18T12:57:37Z</time>
      </trkpt>
      <trkpt lat="48.69463" lon="7.27278">
        <ele>290</ele>
        <time>2020-08-18T12:57:40Z</time>
      </trkpt>
      <trkpt lat="48.69468" lon="7.27282">
        <ele>290.5</ele>
        <time>2020-08-18T12:57:42Z</time>
      </trkpt>
      <trkpt lat="48.69474" lon="7.27284">
        <ele>290.5</ele>
        <time>2020-08-18T12:57:44Z</time>
      </trkpt>
      <trkpt lat="48.69479" lon="7.27286">
        <ele>290.9</ele>
        <time>2020-08-18T12:57:46Z</time>
      </trkpt>
      <trkpt lat="48.69484" lon="7.2729">
        <ele>289.9</ele>
        <time>2020-08-18T12:57:48Z</time>
      </trkpt>
      <trkpt lat="48.69488" lon="7.27294">
        <ele>289.6</ele>
        <time>2020-08-18T12:57:50Z</time>
      </trkpt>
      <trkpt lat="48.69494" lon="7.27296">
        <ele>289.9</ele>
        <time>2020-08-18T12:57:53Z</time>
      </trkpt>
      <trkpt lat="48.69499" lon="7.27299">
        <ele>290.1</ele>
        <time>2020-08-18T12:57:57Z</time>
      </trkpt>
      <trkpt lat="48.69503" lon="7.27302">
        <ele>291.6</ele>
        <time>2020-08-18T12:58:00Z</time>
      </trkpt>
      <trkpt lat="48.69508" lon="7.27306">
        <ele>292.6</ele>
        <time>2020-08-18T12:58:02Z</time>
      </trkpt>
      <trkpt lat="48.69515" lon="7.27313">
        <ele>293.2</ele>
        <time>2020-08-18T12:58:04Z</time>
      </trkpt>
      <trkpt lat="48.6952" lon="7.27319">
        <ele>293.6</ele>
        <time>2020-08-18T12:58:06Z</time>
      </trkpt>
      <trkpt lat="48.69524" lon="7.27323">
        <ele>292.7</ele>
        <time>2020-08-18T12:58:08Z</time>
      </trkpt>
      <trkpt lat="48.69528" lon="7.27328">
        <ele>290.3</ele>
        <time>2020-08-18T12:58:10Z</time>
      </trkpt>
      <trkpt lat="48.69534" lon="7.27332">
        <ele>287.6</ele>
        <time>2020-08-18T12:58:13Z</time>
      </trkpt>
      <trkpt lat="48.69538" lon="7.27336">
        <ele>286</ele>
        <time>2020-08-18T12:58:15Z</time>
      </trkpt>
      <trkpt lat="48.69543" lon="7.27338">
        <ele>284.9</ele>
        <time>2020-08-18T12:58:18Z</time>
      </trkpt>
      <trkpt lat="48.69548" lon="7.27339">
        <ele>284</ele>
        <time>2020-08-18T12:58:22Z</time>
      </trkpt>
      <trkpt lat="48.69553" lon="7.2734">
        <ele>284.8</ele>
        <time>2020-08-18T12:58:27Z</time>
      </trkpt>
      <trkpt lat="48.69558" lon="7.27344">
        <ele>285.4</ele>
        <time>2020-08-18T12:58:29Z</time>
      </trkpt>
      <trkpt lat="48.69564" lon="7.27347">
        <ele>285.7</ele>
        <time>2020-08-18T12:58:32Z</time>
      </trkpt>
      <trkpt lat="48.69569" lon="7.27348">
        <ele>286</ele>
        <time>2020-08-18T12:58:35Z</time>
      </trkpt>
      <trkpt lat="48.69573" lon="7.27347">
        <ele>285.3</ele>
        <time>2020-08-18T12:58:37Z</time>
      </trkpt>
      <trkpt lat="48.69579" lon="7.27346">
        <ele>285.1</ele>
        <time>2020-08-18T12:58:39Z</time>
      </trkpt>
      <trkpt lat="48.69585" lon="7.27348">
        <ele>285.6</ele>
        <time>2020-08-18T12:58:41Z</time>
      </trkpt>
      <trkpt lat="48.6959" lon="7.27354">
        <ele>286.1</ele>
        <time>2020-08-18T12:58:43Z</time>
      </trkpt>
      <trkpt lat="48.69595" lon="7.27361">
        <ele>285.7</ele>
        <time>2020-08-18T12:58:45Z</time>
      </trkpt>
      <trkpt lat="48.69601" lon="7.27365">
        <ele>286.4</ele>
        <time>2020-08-18T12:58:47Z</time>
      </trkpt>
      <trkpt lat="48.69606" lon="7.27365">
        <ele>287</ele>
        <time>2020-08-18T12:58:49Z</time>
      </trkpt>
      <trkpt lat="48.69612" lon="7.27364">
        <ele>288</ele>
        <time>2020-08-18T12:58:51Z</time>
      </trkpt>
      <trkpt lat="48.69619" lon="7.27368">
        <ele>288.8</ele>
        <time>2020-08-18T12:58:53Z</time>
      </trkpt>
      <trkpt lat="48.69623" lon="7.2737">
        <ele>289.5</ele>
        <time>2020-08-18T12:58:55Z</time>
      </trkpt>
      <trkpt lat="48.69629" lon="7.27371">
        <ele>290.1</ele>
        <time>2020-08-18T12:58:58Z</time>
      </trkpt>
      <trkpt lat="48.69634" lon="7.27376">
        <ele>289.6</ele>
        <time>2020-08-18T12:59:02Z</time>
      </trkpt>
      <trkpt lat="48.69639" lon="7.2738">
        <ele>290.1</ele>
        <time>2020-08-18T12:59:04Z</time>
      </trkpt>
      <trkpt lat="48.69645" lon="7.27384">
        <ele>290.4</ele>
        <time>2020-08-18T12:59:06Z</time>
      </trkpt>
      <trkpt lat="48.69653" lon="7.27385">
        <ele>290.8</ele>
        <time>2020-08-18T12:59:08Z</time>
      </trkpt>
      <trkpt lat="48.69661" lon="7.27388">
        <ele>290.9</ele>
        <time>2020-08-18T12:59:10Z</time>
      </trkpt>
      <trkpt lat="48.69669" lon="7.27391">
        <ele>290.9</ele>
        <time>2020-08-18T12:59:12Z</time>
      </trkpt>
      <trkpt lat="48.69679" lon="7.27397">
        <ele>289.8</ele>
        <time>2020-08-18T12:59:14Z</time>
      </trkpt>
      <trkpt lat="48.69687" lon="7.27401">
        <ele>289.2</ele>
        <time>2020-08-18T12:59:16Z</time>
      </trkpt>
      <trkpt lat="48.69693" lon="7.27403">
        <ele>288.6</ele>
        <time>2020-08-18T12:59:18Z</time>
      </trkpt>
      <trkpt lat="48.69697" lon="7.27406">
        <ele>288.1</ele>
        <time>2020-08-18T12:59:21Z</time>
      </trkpt>
      <trkpt lat="48.69701" lon="7.2741">
        <ele>285.7</ele>
        <time>2020-08-18T12:59:26Z</time>
      </trkpt>
      <trkpt lat="48.69705" lon="7.27414">
        <ele>284.6</ele>
        <time>2020-08-18T12:59:29Z</time>
      </trkpt>
      <trkpt lat="48.6971" lon="7.27417">
        <ele>284</ele>
        <time>2020-08-18T12:59:32Z</time>
      </trkpt>
      <trkpt lat="48.69715" lon="7.27419">
        <ele>282.9</ele>
        <time>2020-08-18T12:59:37Z</time>
      </trkpt>
      <trkpt lat="48.69719" lon="7.27423">
        <ele>280.9</ele>
        <time>2020-08-18T12:59:45Z</time>
      </trkpt>
      <trkpt lat="48.69722" lon="7.27429">
        <ele>281</ele>
        <time>2020-08-18T12:59:49Z</time>
      </trkpt>
      <trkpt lat="48.69727" lon="7.27432">
        <ele>281.2</ele>
        <time>2020-08-18T12:59:51Z</time>
      </trkpt>
      <trkpt lat="48.69732" lon="7.27439">
        <ele>280.4</ele>
        <time>2020-08-18T12:59:53Z</time>
      </trkpt>
      <trkpt lat="48.6974" lon="7.27447">
        <ele>280.2</ele>
        <time>2020-08-18T12:59:55Z</time>
      </trkpt>
      <trkpt lat="48.69748" lon="7.27455">
        <ele>279.9</ele>
        <time>2020-08-18T12:59:57Z</time>
      </trkpt>
      <trkpt lat="48.69755" lon="7.27463">
        <ele>279.6</ele>
        <time>2020-08-18T12:59:59Z</time>
      </trkpt>
      <trkpt lat="48.69762" lon="7.27469">
        <ele>279.9</ele>
        <time>2020-08-18T13:00:01Z</time>
      </trkpt>
      <trkpt lat="48.69769" lon="7.27475">
        <ele>279.7</ele>
        <time>2020-08-18T13:00:03Z</time>
      </trkpt>
      <trkpt lat="48.69776" lon="7.27481">
        <ele>279.8</ele>
        <time>2020-08-18T13:00:05Z</time>
      </trkpt>
      <trkpt lat="48.69782" lon="7.27489">
        <ele>279.3</ele>
        <time>2020-08-18T13:00:07Z</time>
      </trkpt>
      <trkpt lat="48.69789" lon="7.27496">
        <ele>278.9</ele>
        <time>2020-08-18T13:00:09Z</time>
      </trkpt>
      <trkpt lat="48.69797" lon="7.27503">
        <ele>278</ele>
        <time>2020-08-18T13:00:11Z</time>
      </trkpt>
      <trkpt lat="48.69806" lon="7.27508">
        <ele>278.1</ele>
        <time>2020-08-18T13:00:13Z</time>
      </trkpt>
      <trkpt lat="48.69811" lon="7.27512">
        <ele>279.2</ele>
        <time>2020-08-18T13:00:16Z</time>
      </trkpt>
      <trkpt lat="48.69815" lon="7.27514">
        <ele>282.8</ele>
        <time>2020-08-18T13:00:36Z</time>
      </trkpt>
      <trkpt lat="48.69821" lon="7.27515">
        <ele>282</ele>
        <time>2020-08-18T13:00:42Z</time>
      </trkpt>
      <trkpt lat="48.69827" lon="7.27517">
        <ele>281.3</ele>
        <time>2020-08-18T13:00:45Z</time>
      </trkpt>
      <trkpt lat="48.69833" lon="7.27518">
        <ele>280.9</ele>
        <time>2020-08-18T13:00:47Z</time>
      </trkpt>
      <trkpt lat="48.6984" lon="7.27517">
        <ele>281</ele>
        <time>2020-08-18T13:00:49Z</time>
      </trkpt>
      <trkpt lat="48.69846" lon="7.27516">
        <ele>281.5</ele>
        <time>2020-08-18T13:00:51Z</time>
      </trkpt>
      <trkpt lat="48.69851" lon="7.27516">
        <ele>281.4</ele>
        <time>2020-08-18T13:00:53Z</time>
      </trkpt>
      <trkpt lat="48.69856" lon="7.27515">
        <ele>281.1</ele>
        <time>2020-08-18T13:00:55Z</time>
      </trkpt>
      <trkpt lat="48.6986" lon="7.27513">
        <ele>280.8</ele>
        <time>2020-08-18T13:01:00Z</time>
      </trkpt>
      <trkpt lat="48.69865" lon="7.27513">
        <ele>279</ele>
        <time>2020-08-18T13:01:11Z</time>
      </trkpt>
      <trkpt lat="48.69869" lon="7.27518">
        <ele>277.7</ele>
        <time>2020-08-18T13:01:14Z</time>
      </trkpt>
      <trkpt lat="48.69873" lon="7.2752">
        <ele>276.9</ele>
        <time>2020-08-18T13:01:18Z</time>
      </trkpt>
      <trkpt lat="48.69878" lon="7.27521">
        <ele>275.6</ele>
        <time>2020-08-18T13:01:26Z</time>
      </trkpt>
      <trkpt lat="48.69883" lon="7.27522">
        <ele>275.4</ele>
        <time>2020-08-18T13:01:31Z</time>
      </trkpt>
      <trkpt lat="48.69888" lon="7.27524">
        <ele>275.4</ele>
        <time>2020-08-18T13:01:40Z</time>
      </trkpt>
      <trkpt lat="48.69892" lon="7.27522">
        <ele>273.7</ele>
        <time>2020-08-18T13:01:46Z</time>
      </trkpt>
      <trkpt lat="48.69897" lon="7.27521">
        <ele>271.4</ele>
        <time>2020-08-18T13:01:57Z</time>
      </trkpt>
      <trkpt lat="48.69903" lon="7.27519">
        <ele>271.2</ele>
        <time>2020-08-18T13:02:00Z</time>
      </trkpt>
      <trkpt lat="48.69908" lon="7.27518">
        <ele>271.4</ele>
        <time>2020-08-18T13:02:02Z</time>
      </trkpt>
      <trkpt lat="48.69914" lon="7.27516">
        <ele>272.2</ele>
        <time>2020-08-18T13:02:04Z</time>
      </trkpt>
      <trkpt lat="48.6992" lon="7.27515">
        <ele>272.6</ele>
        <time>2020-08-18T13:02:06Z</time>
      </trkpt>
      <trkpt lat="48.69925" lon="7.27513">
        <ele>273.7</ele>
        <time>2020-08-18T13:02:08Z</time>
      </trkpt>
      <trkpt lat="48.6993" lon="7.27511">
        <ele>274.6</ele>
        <time>2020-08-18T13:02:10Z</time>
      </trkpt>
      <trkpt lat="48.69936" lon="7.2751">
        <ele>276.1</ele>
        <time>2020-08-18T13:02:13Z</time>
      </trkpt>
      <trkpt lat="48.69941" lon="7.2751">
        <ele>276.6</ele>
        <time>2020-08-18T13:02:15Z</time>
      </trkpt>
      <trkpt lat="48.69947" lon="7.2751">
        <ele>276.8</ele>
        <time>2020-08-18T13:02:17Z</time>
      </trkpt>
      <trkpt lat="48.69954" lon="7.2751">
        <ele>276</ele>
        <time>2020-08-18T13:02:19Z</time>
      </trkpt>
      <trkpt lat="48.69962" lon="7.2751">
        <ele>275.7</ele>
        <time>2020-08-18T13:02:21Z</time>
      </trkpt>
      <trkpt lat="48.69968" lon="7.27512">
        <ele>275.1</ele>
        <time>2020-08-18T13:02:23Z</time>
      </trkpt>
      <trkpt lat="48.69974" lon="7.27515">
        <ele>275.1</ele>
        <time>2020-08-18T13:02:25Z</time>
      </trkpt>
      <trkpt lat="48.69979" lon="7.27515">
        <ele>275.7</ele>
        <time>2020-08-18T13:02:29Z</time>
      </trkpt>
      <trkpt lat="48.69983" lon="7.27518">
        <ele>276.7</ele>
        <time>2020-08-18T13:02:36Z</time>
      </trkpt>
      <trkpt lat="48.69987" lon="7.27522">
        <ele>276.9</ele>
        <time>2020-08-18T13:02:42Z</time>
      </trkpt>
      <trkpt lat="48.69991" lon="7.27527">
        <ele>276.5</ele>
        <time>2020-08-18T13:02:45Z</time>
      </trkpt>
      <trkpt lat="48.69995" lon="7.27532">
        <ele>275</ele>
        <time>2020-08-18T13:02:50Z</time>
      </trkpt>
      <trkpt lat="48.7" lon="7.27534">
        <ele>276.3</ele>
        <time>2020-08-18T13:02:56Z</time>
      </trkpt>
      <trkpt lat="48.70004" lon="7.27541">
        <ele>275.4</ele>
        <time>2020-08-18T13:03:01Z</time>
      </trkpt>
      <trkpt lat="48.70006" lon="7.27546">
        <ele>274.5</ele>
        <time>2020-08-18T13:03:05Z</time>
      </trkpt>
      <trkpt lat="48.70009" lon="7.27553">
        <ele>272.6</ele>
        <time>2020-08-18T13:03:13Z</time>
      </trkpt>
      <trkpt lat="48.70012" lon="7.27562">
        <ele>272.4</ele>
        <time>2020-08-18T13:03:16Z</time>
      </trkpt>
      <trkpt lat="48.70014" lon="7.27569">
        <ele>272.2</ele>
        <time>2020-08-18T13:03:18Z</time>
      </trkpt>
      <trkpt lat="48.70017" lon="7.27577">
        <ele>272.3</ele>
        <time>2020-08-18T13:03:20Z</time>
      </trkpt>
      <trkpt lat="48.7002" lon="7.27588">
        <ele>272.1</ele>
        <time>2020-08-18T13:03:22Z</time>
      </trkpt>
      <trkpt lat="48.70023" lon="7.27597">
        <ele>272</ele>
        <time>2020-08-18T13:03:24Z</time>
      </trkpt>
      <trkpt lat="48.70027" lon="7.27605">
        <ele>272.1</ele>
        <time>2020-08-18T13:03:26Z</time>
      </trkpt>
      <trkpt lat="48.7003" lon="7.27612">
        <ele>272.6</ele>
        <time>2020-08-18T13:03:28Z</time>
      </trkpt>
      <trkpt lat="48.70033" lon="7.27617">
        <ele>274.1</ele>
        <time>2020-08-18T13:03:37Z</time>
      </trkpt>
      <trkpt lat="48.70036" lon="7.27622">
        <ele>273.6</ele>
        <time>2020-08-18T13:03:43Z</time>
      </trkpt>
      <trkpt lat="48.70039" lon="7.27629">
        <ele>272.9</ele>
        <time>2020-08-18T13:03:53Z</time>
      </trkpt>
      <trkpt lat="48.70041" lon="7.27635">
        <ele>273.4</ele>
        <time>2020-08-18T13:03:56Z</time>
      </trkpt>
      <trkpt lat="48.70042" lon="7.27643">
        <ele>273.7</ele>
        <time>2020-08-18T13:03:58Z</time>
      </trkpt>
      <trkpt lat="48.70045" lon="7.2765">
        <ele>273.6</ele>
        <time>2020-08-18T13:04:00Z</time>
      </trkpt>
      <trkpt lat="48.70048" lon="7.27657">
        <ele>273.6</ele>
        <time>2020-08-18T13:04:02Z</time>
      </trkpt>
      <trkpt lat="48.70051" lon="7.27665">
        <ele>273.4</ele>
        <time>2020-08-18T13:04:04Z</time>
      </trkpt>
      <trkpt lat="48.70054" lon="7.27672">
        <ele>274</ele>
        <time>2020-08-18T13:04:06Z</time>
      </trkpt>
      <trkpt lat="48.7006" lon="7.27681">
        <ele>274.6</ele>
        <time>2020-08-18T13:04:08Z</time>
      </trkpt>
      <trkpt lat="48.70066" lon="7.27689">
        <ele>274.9</ele>
        <time>2020-08-18T13:04:10Z</time>
      </trkpt>
      <trkpt lat="48.70071" lon="7.27696">
        <ele>274.5</ele>
        <time>2020-08-18T13:04:12Z</time>
      </trkpt>
      <trkpt lat="48.70077" lon="7.27703">
        <ele>274.2</ele>
        <time>2020-08-18T13:04:14Z</time>
      </trkpt>
      <trkpt lat="48.70082" lon="7.27708">
        <ele>273.6</ele>
        <time>2020-08-18T13:04:16Z</time>
      </trkpt>
      <trkpt lat="48.70088" lon="7.27715">
        <ele>273.3</ele>
        <time>2020-08-18T13:04:18Z</time>
      </trkpt>
      <trkpt lat="48.70094" lon="7.27722">
        <ele>273.7</ele>
        <time>2020-08-18T13:04:20Z</time>
      </trkpt>
      <trkpt lat="48.701" lon="7.27728">
        <ele>273.3</ele>
        <time>2020-08-18T13:04:22Z</time>
      </trkpt>
      <trkpt lat="48.70109" lon="7.27737">
        <ele>273.3</ele>
        <time>2020-08-18T13:04:24Z</time>
      </trkpt>
      <trkpt lat="48.70116" lon="7.27743">
        <ele>273.7</ele>
        <time>2020-08-18T13:04:26Z</time>
      </trkpt>
      <trkpt lat="48.7012" lon="7.27747">
        <ele>273.5</ele>
        <time>2020-08-18T13:04:29Z</time>
      </trkpt>
      <trkpt lat="48.70124" lon="7.27754">
        <ele>273.5</ele>
        <time>2020-08-18T13:04:39Z</time>
      </trkpt>
      <trkpt lat="48.70128" lon="7.27761">
        <ele>273.9</ele>
        <time>2020-08-18T13:04:41Z</time>
      </trkpt>
      <trkpt lat="48.70132" lon="7.27771">
        <ele>273.9</ele>
        <time>2020-08-18T13:04:43Z</time>
      </trkpt>
      <trkpt lat="48.70137" lon="7.27781">
        <ele>273.7</ele>
        <time>2020-08-18T13:04:45Z</time>
      </trkpt>
      <trkpt lat="48.70148" lon="7.27792">
        <ele>273.8</ele>
        <time>2020-08-18T13:04:47Z</time>
      </trkpt>
      <trkpt lat="48.70156" lon="7.27803">
        <ele>274</ele>
        <time>2020-08-18T13:04:49Z</time>
      </trkpt>
      <trkpt lat="48.70163" lon="7.27811">
        <ele>271.7</ele>
        <time>2020-08-18T13:04:51Z</time>
      </trkpt>
      <trkpt lat="48.7017" lon="7.27822">
        <ele>270.7</ele>
        <time>2020-08-18T13:04:53Z</time>
      </trkpt>
      <trkpt lat="48.70177" lon="7.27836">
        <ele>269.1</ele>
        <time>2020-08-18T13:04:55Z</time>
      </trkpt>
      <trkpt lat="48.70182" lon="7.27842">
        <ele>268.3</ele>
        <time>2020-08-18T13:04:57Z</time>
      </trkpt>
      <trkpt lat="48.70187" lon="7.27845">
        <ele>268.2</ele>
        <time>2020-08-18T13:05:01Z</time>
      </trkpt>
      <trkpt lat="48.70192" lon="7.27845">
        <ele>267.8</ele>
        <time>2020-08-18T13:05:06Z</time>
      </trkpt>
      <trkpt lat="48.70196" lon="7.27849">
        <ele>270.2</ele>
        <time>2020-08-18T13:05:24Z</time>
      </trkpt>
      <trkpt lat="48.70191" lon="7.27848">
        <ele>271</ele>
        <time>2020-08-18T13:06:22Z</time>
      </trkpt>
      <trkpt lat="48.70195" lon="7.27853">
        <ele>273.4</ele>
        <time>2020-08-18T13:06:40Z</time>
      </trkpt>
      <trkpt lat="48.702" lon="7.27859">
        <ele>273.4</ele>
        <time>2020-08-18T13:06:42Z</time>
      </trkpt>
      <trkpt lat="48.70206" lon="7.27868">
        <ele>273.1</ele>
        <time>2020-08-18T13:06:44Z</time>
      </trkpt>
      <trkpt lat="48.70214" lon="7.27877">
        <ele>273.4</ele>
        <time>2020-08-18T13:06:46Z</time>
      </trkpt>
      <trkpt lat="48.70219" lon="7.27882">
        <ele>274.5</ele>
        <time>2020-08-18T13:06:48Z</time>
      </trkpt>
      <trkpt lat="48.70222" lon="7.27887">
        <ele>276.5</ele>
        <time>2020-08-18T13:06:57Z</time>
      </trkpt>
      <trkpt lat="48.70227" lon="7.2789">
        <ele>277.6</ele>
        <time>2020-08-18T13:07:08Z</time>
      </trkpt>
      <trkpt lat="48.70231" lon="7.27894">
        <ele>277.8</ele>
        <time>2020-08-18T13:07:10Z</time>
      </trkpt>
      <trkpt lat="48.70236" lon="7.27899">
        <ele>278.5</ele>
        <time>2020-08-18T13:07:12Z</time>
      </trkpt>
      <trkpt lat="48.7024" lon="7.27906">
        <ele>279.6</ele>
        <time>2020-08-18T13:07:14Z</time>
      </trkpt>
      <trkpt lat="48.70245" lon="7.27913">
        <ele>279.6</ele>
        <time>2020-08-18T13:07:16Z</time>
      </trkpt>
      <trkpt lat="48.70251" lon="7.27922">
        <ele>279.5</ele>
        <time>2020-08-18T13:07:18Z</time>
      </trkpt>
      <trkpt lat="48.70256" lon="7.27932">
        <ele>278.9</ele>
        <time>2020-08-18T13:07:20Z</time>
      </trkpt>
      <trkpt lat="48.70265" lon="7.27944">
        <ele>278.2</ele>
        <time>2020-08-18T13:07:22Z</time>
      </trkpt>
      <trkpt lat="48.70273" lon="7.27957">
        <ele>277.9</ele>
        <time>2020-08-18T13:07:24Z</time>
      </trkpt>
      <trkpt lat="48.70281" lon="7.2797">
        <ele>277</ele>
        <time>2020-08-18T13:07:26Z</time>
      </trkpt>
      <trkpt lat="48.70289" lon="7.27986">
        <ele>276.9</ele>
        <time>2020-08-18T13:07:28Z</time>
      </trkpt>
      <trkpt lat="48.70297" lon="7.28001">
        <ele>276.8</ele>
        <time>2020-08-18T13:07:30Z</time>
      </trkpt>
      <trkpt lat="48.70304" lon="7.28013">
        <ele>277.3</ele>
        <time>2020-08-18T13:07:32Z</time>
      </trkpt>
      <trkpt lat="48.70307" lon="7.28019">
        <ele>278.4</ele>
        <time>2020-08-18T13:07:35Z</time>
      </trkpt>
      <trkpt lat="48.70311" lon="7.28024">
        <ele>280.4</ele>
        <time>2020-08-18T13:07:52Z</time>
      </trkpt>
      <trkpt lat="48.70312" lon="7.28034">
        <ele>282.3</ele>
        <time>2020-08-18T13:07:56Z</time>
      </trkpt>
      <trkpt lat="48.70314" lon="7.28042">
        <ele>282.5</ele>
        <time>2020-08-18T13:07:58Z</time>
      </trkpt>
      <trkpt lat="48.70318" lon="7.2805">
        <ele>282.5</ele>
        <time>2020-08-18T13:08:00Z</time>
      </trkpt>
      <trkpt lat="48.70322" lon="7.28058">
        <ele>282.5</ele>
        <time>2020-08-18T13:08:02Z</time>
      </trkpt>
      <trkpt lat="48.70325" lon="7.28071">
        <ele>282.2</ele>
        <time>2020-08-18T13:08:04Z</time>
      </trkpt>
      <trkpt lat="48.70327" lon="7.28079">
        <ele>282.3</ele>
        <time>2020-08-18T13:08:06Z</time>
      </trkpt>
      <trkpt lat="48.70329" lon="7.28086">
        <ele>283.2</ele>
        <time>2020-08-18T13:08:12Z</time>
      </trkpt>
      <trkpt lat="48.70332" lon="7.28092">
        <ele>283.4</ele>
        <time>2020-08-18T13:08:16Z</time>
      </trkpt>
      <trkpt lat="48.70334" lon="7.28099">
        <ele>283.6</ele>
        <time>2020-08-18T13:08:23Z</time>
      </trkpt>
      <trkpt lat="48.70338" lon="7.28108">
        <ele>282.9</ele>
        <time>2020-08-18T13:08:26Z</time>
      </trkpt>
      <trkpt lat="48.70342" lon="7.28117">
        <ele>281.8</ele>
        <time>2020-08-18T13:08:28Z</time>
      </trkpt>
      <trkpt lat="48.70345" lon="7.28127">
        <ele>279.9</ele>
        <time>2020-08-18T13:08:30Z</time>
      </trkpt>
      <trkpt lat="48.70347" lon="7.28135">
        <ele>278.3</ele>
        <time>2020-08-18T13:08:32Z</time>
      </trkpt>
      <trkpt lat="48.70347" lon="7.28142">
        <ele>276.6</ele>
        <time>2020-08-18T13:08:34Z</time>
      </trkpt>
      <trkpt lat="48.70349" lon="7.2815">
        <ele>275.9</ele>
        <time>2020-08-18T13:08:36Z</time>
      </trkpt>
      <trkpt lat="48.70351" lon="7.28156">
        <ele>275.4</ele>
        <time>2020-08-18T13:08:38Z</time>
      </trkpt>
      <trkpt lat="48.70354" lon="7.28167">
        <ele>274.5</ele>
        <time>2020-08-18T13:08:40Z</time>
      </trkpt>
      <trkpt lat="48.70356" lon="7.28179">
        <ele>274.1</ele>
        <time>2020-08-18T13:08:42Z</time>
      </trkpt>
      <trkpt lat="48.70358" lon="7.28188">
        <ele>273.3</ele>
        <time>2020-08-18T13:08:44Z</time>
      </trkpt>
      <trkpt lat="48.70362" lon="7.28207">
        <ele>271.1</ele>
        <time>2020-08-18T13:08:47Z</time>
      </trkpt>
      <trkpt lat="48.70367" lon="7.28222">
        <ele>269.5</ele>
        <time>2020-08-18T13:08:49Z</time>
      </trkpt>
      <trkpt lat="48.70371" lon="7.28239">
        <ele>268.3</ele>
        <time>2020-08-18T13:08:51Z</time>
      </trkpt>
      <trkpt lat="48.70374" lon="7.28253">
        <ele>266.9</ele>
        <time>2020-08-18T13:08:53Z</time>
      </trkpt>
      <trkpt lat="48.70377" lon="7.28265">
        <ele>266</ele>
        <time>2020-08-18T13:08:55Z</time>
      </trkpt>
      <trkpt lat="48.70381" lon="7.28269">
        <ele>265.7</ele>
        <time>2020-08-18T13:08:57Z</time>
      </trkpt>
    </trkseg>
  </trk>
</gpx>